sensor_id;sensor_type;location;lat;lon;timestamp;P1;durP1;ratioP1;P2;durP2;ratioP2
32080;SDS011;18593;51.426;7.030;2023-06-14T00:00:09;10.88;;;6.32;;
32080;SDS011;18593;51.426;7.030;2023-06-14T00:02:41;8.88;;;5.85;;
32080;SDS011;18593;51.426;7.030;2023-06-14T00:05:08;9.02;;;6.07;;
32080;SDS011;18593;51.426;7.030;2023-06-14T00:07:39;11.75;;;6.10;;
32080;SDS011;18593;51.426;7.030;2023-06-14T00:10:08;10.15;;;6.03;;
32080;SDS011;18593;51.426;7.030;2023-06-14T00:12:37;8.60;;;6.18;;
32080;SDS011;18593;51.426;7.030;2023-06-14T00:15:05;9.27;;;6.50;;
32080;SDS011;18593;51.426;7.030;2023-06-14T00:17:35;11.15;;;5.97;;
32080;SDS011;18593;51.426;7.030;2023-06-14T00:20:05;10.48;;;6.15;;
32080;SDS011;18593;51.426;7.030;2023-06-14T00:22:34;11.35;;;6.00;;
32080;SDS011;18593;51.426;7.030;2023-06-14T00:25:06;9.57;;;6.50;;
32080;SDS011;18593;51.426;7.030;2023-06-14T00:27:37;9.02;;;6.47;;
32080;SDS011;18593;51.426;7.030;2023-06-14T00:30:04;13.50;;;6.77;;
32080;SDS011;18593;51.426;7.030;2023-06-14T00:32:33;9.55;;;6.43;;
32080;SDS011;18593;51.426;7.030;2023-06-14T00:35:00;11.88;;;6.35;;
32080;SDS011;18593;51.426;7.030;2023-06-14T00:37:28;9.88;;;6.50;;
32080;SDS011;18593;51.426;7.030;2023-06-14T00:39:57;10.20;;;6.70;;
32080;SDS011;18593;51.426;7.030;2023-06-14T00:42:27;9.77;;;6.55;;
32080;SDS011;18593;51.426;7.030;2023-06-14T00:44:55;10.57;;;6.65;;
32080;SDS011;18593;51.426;7.030;2023-06-14T00:47:23;9.25;;;6.63;;
32080;SDS011;18593;51.426;7.030;2023-06-14T00:49:50;10.52;;;6.78;;
32080;SDS011;18593;51.426;7.030;2023-06-14T00:52:19;9.73;;;6.68;;
32080;SDS011;18593;51.426;7.030;2023-06-14T00:54:50;13.02;;;6.97;;
32080;SDS011;18593;51.426;7.030;2023-06-14T00:57:18;15.52;;;6.88;;
32080;SDS011;18593;51.426;7.030;2023-06-14T00:59:47;10.90;;;6.40;;
32080;SDS011;18593;51.426;7.030;2023-06-14T01:02:15;9.32;;;6.72;;
32080;SDS011;18593;51.426;7.030;2023-06-14T01:04:47;12.23;;;7.22;;
32080;SDS011;18593;51.426;7.030;2023-06-14T01:07:18;12.10;;;6.53;;
32080;SDS011;18593;51.426;7.030;2023-06-14T01:10:13;11.23;;;6.25;;
32080;SDS011;18593;51.426;7.030;2023-06-14T01:13:02;10.55;;;6.68;;
32080;SDS011;18593;51.426;7.030;2023-06-14T01:15:42;12.10;;;6.57;;
32080;SDS011;18593;51.426;7.030;2023-06-14T01:18:10;9.93;;;6.57;;
32080;SDS011;18593;51.426;7.030;2023-06-14T01:20:42;9.90;;;6.45;;
32080;SDS011;18593;51.426;7.030;2023-06-14T01:23:15;10.43;;;6.40;;
32080;SDS011;18593;51.426;7.030;2023-06-14T01:25:43;10.15;;;6.45;;
32080;SDS011;18593;51.426;7.030;2023-06-14T01:28:12;12.30;;;6.50;;
32080;SDS011;18593;51.426;7.030;2023-06-14T01:30:42;12.82;;;7.00;;
32080;SDS011;18593;51.426;7.030;2023-06-14T01:33:19;10.07;;;6.53;;
32080;SDS011;18593;51.426;7.030;2023-06-14T01:35:52;12.45;;;6.50;;
32080;SDS011;18593;51.426;7.030;2023-06-14T01:38:23;10.93;;;6.72;;
32080;SDS011;18593;51.426;7.030;2023-06-14T01:43:24;10.10;;;6.63;;
32080;SDS011;18593;51.426;7.030;2023-06-14T01:45:53;8.80;;;6.13;;
32080;SDS011;18593;51.426;7.030;2023-06-14T01:48:21;12.48;;;6.55;;
32080;SDS011;18593;51.426;7.030;2023-06-14T01:50:49;11.95;;;6.38;;
32080;SDS011;18593;51.426;7.030;2023-06-14T01:53:19;11.95;;;6.30;;
32080;SDS011;18593;51.426;7.030;2023-06-14T01:55:48;9.02;;;6.25;;
32080;SDS011;18593;51.426;7.030;2023-06-14T01:58:15;9.95;;;6.10;;
32080;SDS011;18593;51.426;7.030;2023-06-14T02:00:46;10.07;;;6.22;;
32080;SDS011;18593;51.426;7.030;2023-06-14T02:03:13;13.60;;;6.60;;
32080;SDS011;18593;51.426;7.030;2023-06-14T02:05:40;8.93;;;5.95;;
32080;SDS011;18593;51.426;7.030;2023-06-14T02:08:08;10.95;;;6.40;;
32080;SDS011;18593;51.426;7.030;2023-06-14T02:10:36;14.52;;;6.10;;
32080;SDS011;18593;51.426;7.030;2023-06-14T02:13:05;9.07;;;5.95;;
32080;SDS011;18593;51.426;7.030;2023-06-14T02:15:34;9.73;;;5.85;;
32080;SDS011;18593;51.426;7.030;2023-06-14T02:18:02;13.57;;;6.63;;
32080;SDS011;18593;51.426;7.030;2023-06-14T02:20:31;12.68;;;6.80;;
32080;SDS011;18593;51.426;7.030;2023-06-14T02:23:01;11.95;;;6.32;;
32080;SDS011;18593;51.426;7.030;2023-06-14T02:25:30;11.68;;;6.60;;
32080;SDS011;18593;51.426;7.030;2023-06-14T02:27:57;11.65;;;6.10;;
32080;SDS011;18593;51.426;7.030;2023-06-14T02:30:26;11.05;;;6.38;;
32080;SDS011;18593;51.426;7.030;2023-06-14T02:32:55;8.53;;;6.20;;
32080;SDS011;18593;51.426;7.030;2023-06-14T02:35:24;8.40;;;5.90;;
32080;SDS011;18593;51.426;7.030;2023-06-14T02:37:54;10.63;;;5.72;;
32080;SDS011;18593;51.426;7.030;2023-06-14T02:40:22;12.77;;;6.05;;
32080;SDS011;18593;51.426;7.030;2023-06-14T02:42:49;8.43;;;6.03;;
32080;SDS011;18593;51.426;7.030;2023-06-14T02:45:16;8.38;;;5.63;;
32080;SDS011;18593;51.426;7.030;2023-06-14T02:47:46;10.35;;;6.50;;
32080;SDS011;18593;51.426;7.030;2023-06-14T02:52:43;8.73;;;5.95;;
32080;SDS011;18593;51.426;7.030;2023-06-14T02:55:10;8.60;;;6.05;;
32080;SDS011;18593;51.426;7.030;2023-06-14T02:57:39;10.55;;;6.03;;
32080;SDS011;18593;51.426;7.030;2023-06-14T03:00:08;10.52;;;5.95;;
32080;SDS011;18593;51.426;7.030;2023-06-14T03:02:40;9.70;;;6.18;;
32080;SDS011;18593;51.426;7.030;2023-06-14T03:05:14;7.57;;;5.57;;
32080;SDS011;18593;51.426;7.030;2023-06-14T03:07:42;10.23;;;6.15;;
32080;SDS011;18593;51.426;7.030;2023-06-14T03:10:10;10.25;;;6.30;;
32080;SDS011;18593;51.426;7.030;2023-06-14T03:12:42;9.20;;;5.95;;
32080;SDS011;18593;51.426;7.030;2023-06-14T03:15:13;9.38;;;6.05;;
32080;SDS011;18593;51.426;7.030;2023-06-14T03:17:45;10.70;;;6.38;;
32080;SDS011;18593;51.426;7.030;2023-06-14T03:20:16;10.60;;;6.35;;
32080;SDS011;18593;51.426;7.030;2023-06-14T03:22:46;9.40;;;6.20;;
32080;SDS011;18593;51.426;7.030;2023-06-14T03:25:14;10.95;;;6.28;;
32080;SDS011;18593;51.426;7.030;2023-06-14T03:27:43;10.82;;;6.40;;
32080;SDS011;18593;51.426;7.030;2023-06-14T03:30:11;9.77;;;5.75;;
32080;SDS011;18593;51.426;7.030;2023-06-14T03:32:41;10.35;;;6.32;;
32080;SDS011;18593;51.426;7.030;2023-06-14T03:35:08;9.15;;;6.00;;
32080;SDS011;18593;51.426;7.030;2023-06-14T03:37:44;9.77;;;6.38;;
32080;SDS011;18593;51.426;7.030;2023-06-14T03:40:12;11.35;;;6.00;;
32080;SDS011;18593;51.426;7.030;2023-06-14T03:42:43;10.57;;;6.32;;
32080;SDS011;18593;51.426;7.030;2023-06-14T03:45:11;9.68;;;5.82;;
32080;SDS011;18593;51.426;7.030;2023-06-14T03:47:38;9.15;;;6.10;;
32080;SDS011;18593;51.426;7.030;2023-06-14T03:50:06;9.52;;;6.20;;
32080;SDS011;18593;51.426;7.030;2023-06-14T03:52:34;9.63;;;5.80;;
32080;SDS011;18593;51.426;7.030;2023-06-14T03:55:04;12.80;;;6.03;;
32080;SDS011;18593;51.426;7.030;2023-06-14T03:57:33;9.88;;;6.22;;
32080;SDS011;18593;51.426;7.030;2023-06-14T04:00:01;10.43;;;6.28;;
32080;SDS011;18593;51.426;7.030;2023-06-14T04:02:39;10.88;;;6.15;;
32080;SDS011;18593;51.426;7.030;2023-06-14T04:05:09;9.50;;;5.88;;
32080;SDS011;18593;51.426;7.030;2023-06-14T04:07:41;12.45;;;6.05;;
32080;SDS011;18593;51.426;7.030;2023-06-14T04:10:12;11.15;;;6.05;;
32080;SDS011;18593;51.426;7.030;2023-06-14T04:12:39;9.68;;;6.22;;
32080;SDS011;18593;51.426;7.030;2023-06-14T04:15:07;11.80;;;6.10;;
32080;SDS011;18593;51.426;7.030;2023-06-14T04:17:36;11.52;;;6.15;;
32080;SDS011;18593;51.426;7.030;2023-06-14T04:20:06;11.93;;;6.20;;
32080;SDS011;18593;51.426;7.030;2023-06-14T04:22:35;9.25;;;5.68;;
32080;SDS011;18593;51.426;7.030;2023-06-14T04:25:04;9.75;;;5.70;;
32080;SDS011;18593;51.426;7.030;2023-06-14T04:27:34;8.00;;;5.78;;
32080;SDS011;18593;51.426;7.030;2023-06-14T04:30:03;11.33;;;5.93;;
32080;SDS011;18593;51.426;7.030;2023-06-14T04:32:36;16.30;;;6.50;;
32080;SDS011;18593;51.426;7.030;2023-06-14T04:35:06;8.85;;;5.75;;
32080;SDS011;18593;51.426;7.030;2023-06-14T04:37:38;9.65;;;6.03;;
32080;SDS011;18593;51.426;7.030;2023-06-14T04:40:08;17.92;;;5.75;;
32080;SDS011;18593;51.426;7.030;2023-06-14T04:42:38;8.48;;;5.15;;
32080;SDS011;18593;51.426;7.030;2023-06-14T04:45:10;11.25;;;5.88;;
32080;SDS011;18593;51.426;7.030;2023-06-14T04:47:39;9.48;;;5.22;;
32080;SDS011;18593;51.426;7.030;2023-06-14T04:50:07;9.85;;;5.28;;
32080;SDS011;18593;51.426;7.030;2023-06-14T04:52:39;11.27;;;5.57;;
32080;SDS011;18593;51.426;7.030;2023-06-14T04:55:08;11.07;;;5.72;;
32080;SDS011;18593;51.426;7.030;2023-06-14T04:57:36;10.27;;;5.32;;
32080;SDS011;18593;51.426;7.030;2023-06-14T05:00:08;9.20;;;5.03;;
32080;SDS011;18593;51.426;7.030;2023-06-14T05:02:38;14.05;;;5.22;;
32080;SDS011;18593;51.426;7.030;2023-06-14T05:05:06;8.98;;;4.57;;
32080;SDS011;18593;51.426;7.030;2023-06-14T05:07:34;11.55;;;4.95;;
32080;SDS011;18593;51.426;7.030;2023-06-14T05:10:02;9.27;;;4.90;;
32080;SDS011;18593;51.426;7.030;2023-06-14T05:12:30;8.38;;;4.55;;
32080;SDS011;18593;51.426;7.030;2023-06-14T05:14:59;9.25;;;4.57;;
32080;SDS011;18593;51.426;7.030;2023-06-14T05:17:27;10.75;;;5.00;;
32080;SDS011;18593;51.426;7.030;2023-06-14T05:19:54;11.70;;;4.65;;
32080;SDS011;18593;51.426;7.030;2023-06-14T05:22:22;12.27;;;5.60;;
32080;SDS011;18593;51.426;7.030;2023-06-14T05:24:49;15.40;;;7.57;;
32080;SDS011;18593;51.426;7.030;2023-06-14T05:27:16;9.77;;;6.57;;
32080;SDS011;18593;51.426;7.030;2023-06-14T05:29:43;11.90;;;6.13;;
32080;SDS011;18593;51.426;7.030;2023-06-14T05:32:12;8.98;;;5.20;;
32080;SDS011;18593;51.426;7.030;2023-06-14T05:34:40;12.95;;;4.80;;
32080;SDS011;18593;51.426;7.030;2023-06-14T05:37:07;10.27;;;4.65;;
32080;SDS011;18593;51.426;7.030;2023-06-14T05:39:34;8.98;;;4.40;;
32080;SDS011;18593;51.426;7.030;2023-06-14T05:42:01;9.57;;;4.32;;
32080;SDS011;18593;51.426;7.030;2023-06-14T05:44:29;8.23;;;3.92;;
32080;SDS011;18593;51.426;7.030;2023-06-14T05:46:56;8.52;;;4.43;;
32080;SDS011;18593;51.426;7.030;2023-06-14T05:49:24;8.10;;;4.03;;
32080;SDS011;18593;51.426;7.030;2023-06-14T05:51:52;9.93;;;3.78;;
32080;SDS011;18593;51.426;7.030;2023-06-14T05:54:19;11.75;;;4.03;;
32080;SDS011;18593;51.426;7.030;2023-06-14T05:56:46;10.35;;;4.70;;
32080;SDS011;18593;51.426;7.030;2023-06-14T05:59:13;11.02;;;4.63;;
32080;SDS011;18593;51.426;7.030;2023-06-14T06:01:40;11.40;;;3.67;;
32080;SDS011;18593;51.426;7.030;2023-06-14T06:04:08;11.68;;;3.90;;
32080;SDS011;18593;51.426;7.030;2023-06-14T06:06:37;9.93;;;4.43;;
32080;SDS011;18593;51.426;7.030;2023-06-14T06:09:05;11.48;;;3.70;;
32080;SDS011;18593;51.426;7.030;2023-06-14T06:11:32;7.28;;;3.50;;
32080;SDS011;18593;51.426;7.030;2023-06-14T06:13:59;8.13;;;3.50;;
32080;SDS011;18593;51.426;7.030;2023-06-14T06:16:26;10.82;;;4.22;;
32080;SDS011;18593;51.426;7.030;2023-06-14T06:18:54;8.05;;;3.85;;
32080;SDS011;18593;51.426;7.030;2023-06-14T06:21:21;9.80;;;3.80;;
32080;SDS011;18593;51.426;7.030;2023-06-14T06:23:50;12.10;;;3.53;;
32080;SDS011;18593;51.426;7.030;2023-06-14T06:26:17;17.52;;;3.95;;
32080;SDS011;18593;51.426;7.030;2023-06-14T06:28:44;8.20;;;3.53;;
32080;SDS011;18593;51.426;7.030;2023-06-14T06:31:11;8.43;;;3.45;;
32080;SDS011;18593;51.426;7.030;2023-06-14T06:33:38;13.80;;;3.58;;
32080;SDS011;18593;51.426;7.030;2023-06-14T06:36:06;8.38;;;3.20;;
32080;SDS011;18593;51.426;7.030;2023-06-14T06:38:33;10.57;;;2.63;;
32080;SDS011;18593;51.426;7.030;2023-06-14T06:41:02;7.10;;;3.17;;
32080;SDS011;18593;51.426;7.030;2023-06-14T06:43:29;7.13;;;2.78;;
32080;SDS011;18593;51.426;7.030;2023-06-14T06:45:57;6.35;;;2.63;;
32080;SDS011;18593;51.426;7.030;2023-06-14T06:48:24;7.63;;;2.70;;
32080;SDS011;18593;51.426;7.030;2023-06-14T06:50:51;4.95;;;2.45;;
32080;SDS011;18593;51.426;7.030;2023-06-14T06:53:18;6.32;;;2.33;;
32080;SDS011;18593;51.426;7.030;2023-06-14T06:55:45;5.82;;;2.33;;
32080;SDS011;18593;51.426;7.030;2023-06-14T06:58:14;5.15;;;2.40;;
32080;SDS011;18593;51.426;7.030;2023-06-14T07:00:41;4.72;;;2.08;;
32080;SDS011;18593;51.426;7.030;2023-06-14T07:03:09;7.55;;;2.53;;
32080;SDS011;18593;51.426;7.030;2023-06-14T07:05:37;5.00;;;2.70;;
32080;SDS011;18593;51.426;7.030;2023-06-14T07:08:04;5.97;;;2.30;;
32080;SDS011;18593;51.426;7.030;2023-06-14T07:10:31;5.88;;;2.50;;
32080;SDS011;18593;51.426;7.030;2023-06-14T07:12:58;6.00;;;2.13;;
32080;SDS011;18593;51.426;7.030;2023-06-14T07:15:27;4.93;;;2.30;;
32080;SDS011;18593;51.426;7.030;2023-06-14T07:17:54;4.25;;;2.13;;
32080;SDS011;18593;51.426;7.030;2023-06-14T07:20:24;8.63;;;2.45;;
32080;SDS011;18593;51.426;7.030;2023-06-14T07:22:52;10.38;;;2.55;;
32080;SDS011;18593;51.426;7.030;2023-06-14T07:25:19;5.75;;;2.60;;
32080;SDS011;18593;51.426;7.030;2023-06-14T07:27:47;6.57;;;2.22;;
32080;SDS011;18593;51.426;7.030;2023-06-14T07:30:14;4.65;;;2.30;;
32080;SDS011;18593;51.426;7.030;2023-06-14T07:32:43;8.77;;;2.40;;
32080;SDS011;18593;51.426;7.030;2023-06-14T07:35:10;7.25;;;2.00;;
32080;SDS011;18593;51.426;7.030;2023-06-14T07:37:37;4.55;;;2.17;;
32080;SDS011;18593;51.426;7.030;2023-06-14T07:40:05;6.07;;;1.88;;
32080;SDS011;18593;51.426;7.030;2023-06-14T07:42:35;5.72;;;2.10;;
32080;SDS011;18593;51.426;7.030;2023-06-14T07:45:03;6.95;;;2.17;;
32080;SDS011;18593;51.426;7.030;2023-06-14T07:47:31;5.88;;;2.20;;
32080;SDS011;18593;51.426;7.030;2023-06-14T07:50:00;4.55;;;2.00;;
32080;SDS011;18593;51.426;7.030;2023-06-14T07:52:28;4.78;;;2.03;;
32080;SDS011;18593;51.426;7.030;2023-06-14T07:54:56;7.15;;;2.35;;
32080;SDS011;18593;51.426;7.030;2023-06-14T07:57:23;7.43;;;2.55;;
32080;SDS011;18593;51.426;7.030;2023-06-14T07:59:50;6.20;;;2.33;;
32080;SDS011;18593;51.426;7.030;2023-06-14T08:02:17;4.95;;;2.25;;
32080;SDS011;18593;51.426;7.030;2023-06-14T08:04:45;4.57;;;2.10;;
32080;SDS011;18593;51.426;7.030;2023-06-14T08:07:14;4.00;;;2.08;;
32080;SDS011;18593;51.426;7.030;2023-06-14T08:09:42;7.20;;;2.10;;
32080;SDS011;18593;51.426;7.030;2023-06-14T08:12:09;5.35;;;2.25;;
32080;SDS011;18593;51.426;7.030;2023-06-14T08:14:37;7.10;;;2.22;;
32080;SDS011;18593;51.426;7.030;2023-06-14T08:17:05;11.68;;;2.60;;
32080;SDS011;18593;51.426;7.030;2023-06-14T08:19:33;8.25;;;2.30;;
32080;SDS011;18593;51.426;7.030;2023-06-14T08:22:01;5.10;;;2.47;;
32080;SDS011;18593;51.426;7.030;2023-06-14T08:24:31;7.20;;;2.20;;
32080;SDS011;18593;51.426;7.030;2023-06-14T08:26:58;6.95;;;2.10;;
32080;SDS011;18593;51.426;7.030;2023-06-14T08:29:26;6.75;;;2.38;;
32080;SDS011;18593;51.426;7.030;2023-06-14T08:31:56;6.55;;;2.28;;
32080;SDS011;18593;51.426;7.030;2023-06-14T08:34:23;5.97;;;1.90;;
32080;SDS011;18593;51.426;7.030;2023-06-14T08:36:50;7.13;;;2.00;;
32080;SDS011;18593;51.426;7.030;2023-06-14T08:39:18;6.43;;;2.13;;
32080;SDS011;18593;51.426;7.030;2023-06-14T08:41:47;7.90;;;1.98;;
32080;SDS011;18593;51.426;7.030;2023-06-14T08:44:14;7.20;;;2.22;;
32080;SDS011;18593;51.426;7.030;2023-06-14T08:46:42;5.72;;;2.38;;
32080;SDS011;18593;51.426;7.030;2023-06-14T08:49:10;6.53;;;2.45;;
32080;SDS011;18593;51.426;7.030;2023-06-14T08:51:39;11.73;;;2.38;;
32080;SDS011;18593;51.426;7.030;2023-06-14T08:54:07;4.63;;;2.00;;
32080;SDS011;18593;51.426;7.030;2023-06-14T08:56:35;5.78;;;2.50;;
32080;SDS011;18593;51.426;7.030;2023-06-14T08:59:08;5.40;;;2.20;;
32080;SDS011;18593;51.426;7.030;2023-06-14T09:01:37;8.00;;;2.45;;
32080;SDS011;18593;51.426;7.030;2023-06-14T09:04:04;5.75;;;2.00;;
32080;SDS011;18593;51.426;7.030;2023-06-14T09:06:32;5.60;;;2.03;;
32080;SDS011;18593;51.426;7.030;2023-06-14T09:08:59;5.20;;;2.13;;
32080;SDS011;18593;51.426;7.030;2023-06-14T09:11:27;6.55;;;2.30;;
32080;SDS011;18593;51.426;7.030;2023-06-14T09:13:54;5.65;;;2.10;;
32080;SDS011;18593;51.426;7.030;2023-06-14T09:16:26;7.07;;;2.20;;
32080;SDS011;18593;51.426;7.030;2023-06-14T09:18:54;4.00;;;1.85;;
32080;SDS011;18593;51.426;7.030;2023-06-14T09:21:21;5.32;;;1.80;;
32080;SDS011;18593;51.426;7.030;2023-06-14T09:23:48;6.25;;;1.58;;
32080;SDS011;18593;51.426;7.030;2023-06-14T09:26:16;7.47;;;1.60;;
32080;SDS011;18593;51.426;7.030;2023-06-14T09:28:46;4.47;;;1.70;;
32080;SDS011;18593;51.426;7.030;2023-06-14T09:31:15;3.42;;;1.88;;
32080;SDS011;18593;51.426;7.030;2023-06-14T09:33:45;4.25;;;2.00;;
32080;SDS011;18593;51.426;7.030;2023-06-14T09:36:15;11.35;;;2.03;;
32080;SDS011;18593;51.426;7.030;2023-06-14T09:38:51;4.10;;;1.60;;
32080;SDS011;18593;51.426;7.030;2023-06-14T09:41:18;6.13;;;1.25;;
32080;SDS011;18593;51.426;7.030;2023-06-14T09:43:46;6.78;;;1.67;;
32080;SDS011;18593;51.426;7.030;2023-06-14T09:46:31;6.43;;;1.67;;
32080;SDS011;18593;51.426;7.030;2023-06-14T09:49:01;3.00;;;1.50;;
32080;SDS011;18593;51.426;7.030;2023-06-14T09:51:30;10.13;;;2.03;;
32080;SDS011;18593;51.426;7.030;2023-06-14T09:53:58;4.88;;;1.67;;
32080;SDS011;18593;51.426;7.030;2023-06-14T09:56:27;7.53;;;1.70;;
32080;SDS011;18593;51.426;7.030;2023-06-14T09:58:56;5.00;;;1.60;;
32080;SDS011;18593;51.426;7.030;2023-06-14T10:01:25;8.35;;;1.80;;
32080;SDS011;18593;51.426;7.030;2023-06-14T10:03:59;6.65;;;1.58;;
32080;SDS011;18593;51.426;7.030;2023-06-14T10:06:30;6.93;;;1.58;;
32080;SDS011;18593;51.426;7.030;2023-06-14T10:09:02;5.40;;;1.55;;
32080;SDS011;18593;51.426;7.030;2023-06-14T10:11:33;6.95;;;1.70;;
32080;SDS011;18593;51.426;7.030;2023-06-14T10:14:02;5.75;;;2.10;;
32080;SDS011;18593;51.426;7.030;2023-06-14T10:16:33;9.63;;;1.58;;
32080;SDS011;18593;51.426;7.030;2023-06-14T10:19:11;6.03;;;1.63;;
32080;SDS011;18593;51.426;7.030;2023-06-14T10:24:23;6.35;;;1.73;;
32080;SDS011;18593;51.426;7.030;2023-06-14T10:26:57;6.88;;;1.60;;
32080;SDS011;18593;51.426;7.030;2023-06-14T10:29:26;7.20;;;1.30;;
32080;SDS011;18593;51.426;7.030;2023-06-14T10:31:57;6.30;;;1.58;;
32080;SDS011;18593;51.426;7.030;2023-06-14T10:34:27;3.55;;;1.42;;
32080;SDS011;18593;51.426;7.030;2023-06-14T10:37:03;8.63;;;1.63;;
32080;SDS011;18593;51.426;7.030;2023-06-14T10:39:32;4.70;;;1.30;;
32080;SDS011;18593;51.426;7.030;2023-06-14T10:42:07;4.82;;;1.50;;
32080;SDS011;18593;51.426;7.030;2023-06-14T10:44:38;5.93;;;1.63;;
32080;SDS011;18593;51.426;7.030;2023-06-14T10:47:10;7.35;;;1.60;;
32080;SDS011;18593;51.426;7.030;2023-06-14T10:49:51;4.43;;;1.65;;
32080;SDS011;18593;51.426;7.030;2023-06-14T10:52:24;6.70;;;1.67;;
32080;SDS011;18593;51.426;7.030;2023-06-14T10:55:04;10.70;;;1.90;;
32080;SDS011;18593;51.426;7.030;2023-06-14T10:57:38;8.18;;;1.60;;
32080;SDS011;18593;51.426;7.030;2023-06-14T11:00:07;6.32;;;1.85;;
32080;SDS011;18593;51.426;7.030;2023-06-14T11:06:14;6.10;;;1.83;;
32080;SDS011;18593;51.426;7.030;2023-06-14T11:12:03;3.63;;;1.40;;
32080;SDS011;18593;51.426;7.030;2023-06-14T11:14:33;6.25;;;1.77;;
32080;SDS011;18593;51.426;7.030;2023-06-14T11:17:00;7.85;;;1.90;;
32080;SDS011;18593;51.426;7.030;2023-06-14T11:19:27;6.00;;;1.60;;
32080;SDS011;18593;51.426;7.030;2023-06-14T11:21:56;4.03;;;1.70;;
32080;SDS011;18593;51.426;7.030;2023-06-14T11:24:25;4.97;;;1.70;;
32080;SDS011;18593;51.426;7.030;2023-06-14T11:26:52;4.00;;;1.83;;
32080;SDS011;18593;51.426;7.030;2023-06-14T11:29:22;7.30;;;1.88;;
32080;SDS011;18593;51.426;7.030;2023-06-14T11:31:50;3.88;;;1.40;;
32080;SDS011;18593;51.426;7.030;2023-06-14T11:34:17;3.65;;;1.63;;
32080;SDS011;18593;51.426;7.030;2023-06-14T11:36:45;5.97;;;1.60;;
32080;SDS011;18593;51.426;7.030;2023-06-14T11:39:14;6.05;;;1.60;;
32080;SDS011;18593;51.426;7.030;2023-06-14T11:41:42;6.68;;;1.50;;
32080;SDS011;18593;51.426;7.030;2023-06-14T11:44:10;4.40;;;1.40;;
32080;SDS011;18593;51.426;7.030;2023-06-14T11:46:38;7.40;;;1.73;;
32080;SDS011;18593;51.426;7.030;2023-06-14T11:49:06;4.63;;;1.35;;
32080;SDS011;18593;51.426;7.030;2023-06-14T11:51:35;4.65;;;1.60;;
32080;SDS011;18593;51.426;7.030;2023-06-14T11:54:03;6.82;;;1.60;;
32080;SDS011;18593;51.426;7.030;2023-06-14T11:56:33;5.30;;;1.63;;
32080;SDS011;18593;51.426;7.030;2023-06-14T11:59:01;3.90;;;1.60;;
32080;SDS011;18593;51.426;7.030;2023-06-14T12:01:30;6.25;;;1.80;;
32080;SDS011;18593;51.426;7.030;2023-06-14T12:03:58;5.72;;;1.70;;
32080;SDS011;18593;51.426;7.030;2023-06-14T12:06:27;4.43;;;1.60;;
32080;SDS011;18593;51.426;7.030;2023-06-14T12:08:58;6.30;;;1.63;;
32080;SDS011;18593;51.426;7.030;2023-06-14T12:11:31;4.75;;;1.63;;
32080;SDS011;18593;51.426;7.030;2023-06-14T12:14:02;5.50;;;2.13;;
32080;SDS011;18593;51.426;7.030;2023-06-14T12:16:31;4.05;;;1.98;;
32080;SDS011;18593;51.426;7.030;2023-06-14T12:21:45;6.47;;;2.20;;
32080;SDS011;18593;51.426;7.030;2023-06-14T12:24:16;7.45;;;2.10;;
32080;SDS011;18593;51.426;7.030;2023-06-14T12:26:44;5.40;;;2.03;;
32080;SDS011;18593;51.426;7.030;2023-06-14T12:29:12;3.35;;;1.75;;
32080;SDS011;18593;51.426;7.030;2023-06-14T12:31:39;8.00;;;2.00;;
32080;SDS011;18593;51.426;7.030;2023-06-14T12:34:07;5.57;;;2.10;;
32080;SDS011;18593;51.426;7.030;2023-06-14T12:36:35;8.15;;;2.00;;
32080;SDS011;18593;51.426;7.030;2023-06-14T12:39:06;6.25;;;2.15;;
32080;SDS011;18593;51.426;7.030;2023-06-14T12:41:34;5.00;;;1.80;;
32080;SDS011;18593;51.426;7.030;2023-06-14T12:44:04;7.95;;;2.10;;
32080;SDS011;18593;51.426;7.030;2023-06-14T12:46:32;8.43;;;2.17;;
32080;SDS011;18593;51.426;7.030;2023-06-14T12:49:00;5.00;;;2.10;;
32080;SDS011;18593;51.426;7.030;2023-06-14T12:51:27;4.93;;;2.15;;
32080;SDS011;18593;51.426;7.030;2023-06-14T12:53:54;11.13;;;2.40;;
32080;SDS011;18593;51.426;7.030;2023-06-14T12:56:22;4.45;;;2.20;;
32080;SDS011;18593;51.426;7.030;2023-06-14T12:58:49;4.03;;;1.75;;
32080;SDS011;18593;51.426;7.030;2023-06-14T13:01:17;4.78;;;1.75;;
32080;SDS011;18593;51.426;7.030;2023-06-14T13:03:45;6.55;;;2.05;;
32080;SDS011;18593;51.426;7.030;2023-06-14T13:06:12;6.90;;;2.20;;
32080;SDS011;18593;51.426;7.030;2023-06-14T13:08:40;5.60;;;2.10;;
32080;SDS011;18593;51.426;7.030;2023-06-14T13:11:07;4.65;;;2.05;;
32080;SDS011;18593;51.426;7.030;2023-06-14T13:13:34;3.67;;;2.10;;
32080;SDS011;18593;51.426;7.030;2023-06-14T13:16:02;5.28;;;1.92;;
32080;SDS011;18593;51.426;7.030;2023-06-14T13:18:31;6.07;;;2.20;;
32080;SDS011;18593;51.426;7.030;2023-06-14T13:20:58;5.10;;;2.45;;
32080;SDS011;18593;51.426;7.030;2023-06-14T13:23:26;7.68;;;2.15;;
32080;SDS011;18593;51.426;7.030;2023-06-14T13:25:53;5.68;;;2.65;;
32080;SDS011;18593;51.426;7.030;2023-06-14T13:28:20;5.70;;;2.35;;
32080;SDS011;18593;51.426;7.030;2023-06-14T13:30:48;7.18;;;2.65;;
32080;SDS011;18593;51.426;7.030;2023-06-14T13:33:15;4.93;;;2.17;;
32080;SDS011;18593;51.426;7.030;2023-06-14T13:35:44;4.97;;;1.92;;
32080;SDS011;18593;51.426;7.030;2023-06-14T13:38:11;6.05;;;2.15;;
32080;SDS011;18593;51.426;7.030;2023-06-14T13:40:40;7.82;;;2.35;;
32080;SDS011;18593;51.426;7.030;2023-06-14T13:43:07;3.95;;;2.17;;
32080;SDS011;18593;51.426;7.030;2023-06-14T13:45:35;7.60;;;2.00;;
32080;SDS011;18593;51.426;7.030;2023-06-14T13:48:02;6.20;;;2.28;;
32080;SDS011;18593;51.426;7.030;2023-06-14T13:50:30;3.75;;;2.00;;
32080;SDS011;18593;51.426;7.030;2023-06-14T13:53:00;4.53;;;2.05;;
32080;SDS011;18593;51.426;7.030;2023-06-14T13:55:27;6.65;;;2.40;;
32080;SDS011;18593;51.426;7.030;2023-06-14T13:57:54;3.83;;;1.95;;
32080;SDS011;18593;51.426;7.030;2023-06-14T14:00:21;4.93;;;2.15;;
32080;SDS011;18593;51.426;7.030;2023-06-14T14:02:49;3.85;;;2.25;;
32080;SDS011;18593;51.426;7.030;2023-06-14T14:05:16;5.25;;;2.17;;
32080;SDS011;18593;51.426;7.030;2023-06-14T14:07:45;7.72;;;2.25;;
32080;SDS011;18593;51.426;7.030;2023-06-14T14:10:14;7.25;;;1.92;;
32080;SDS011;18593;51.426;7.030;2023-06-14T14:12:41;5.88;;;2.28;;
32080;SDS011;18593;51.426;7.030;2023-06-14T14:15:08;4.72;;;2.00;;
32080;SDS011;18593;51.426;7.030;2023-06-14T14:17:38;7.03;;;2.50;;
32080;SDS011;18593;51.426;7.030;2023-06-14T14:20:05;7.88;;;2.50;;
32080;SDS011;18593;51.426;7.030;2023-06-14T14:22:33;6.18;;;2.50;;
32080;SDS011;18593;51.426;7.030;2023-06-14T14:25:01;4.85;;;2.17;;
32080;SDS011;18593;51.426;7.030;2023-06-14T14:27:29;5.10;;;2.40;;
32080;SDS011;18593;51.426;7.030;2023-06-14T14:29:57;4.80;;;2.20;;
32080;SDS011;18593;51.426;7.030;2023-06-14T14:32:24;3.58;;;2.10;;
32080;SDS011;18593;51.426;7.030;2023-06-14T14:34:51;5.45;;;2.40;;
32080;SDS011;18593;51.426;7.030;2023-06-14T14:37:18;7.20;;;2.22;;
32080;SDS011;18593;51.426;7.030;2023-06-14T14:39:46;4.05;;;2.30;;
32080;SDS011;18593;51.426;7.030;2023-06-14T14:42:13;4.50;;;2.35;;
32080;SDS011;18593;51.426;7.030;2023-06-14T14:44:42;5.63;;;2.60;;
32080;SDS011;18593;51.426;7.030;2023-06-14T14:47:09;9.05;;;2.58;;
32080;SDS011;18593;51.426;7.030;2023-06-14T14:49:37;5.40;;;2.22;;
32080;SDS011;18593;51.426;7.030;2023-06-14T14:52:04;7.60;;;2.50;;
32080;SDS011;18593;51.426;7.030;2023-06-14T14:54:32;8.57;;;2.47;;
32080;SDS011;18593;51.426;7.030;2023-06-14T14:57:00;4.88;;;2.55;;
32080;SDS011;18593;51.426;7.030;2023-06-14T14:59:27;4.22;;;2.25;;
32080;SDS011;18593;51.426;7.030;2023-06-14T15:01:55;11.10;;;2.47;;
32080;SDS011;18593;51.426;7.030;2023-06-14T15:04:23;5.65;;;2.38;;
32080;SDS011;18593;51.426;7.030;2023-06-14T15:06:50;4.35;;;2.28;;
32080;SDS011;18593;51.426;7.030;2023-06-14T15:09:17;6.45;;;2.75;;